• Join FlightAware (Why Join?)
  • Login
  • US Flag 
11:21AM EDT


 

Airport Tracker/Info


-or-


 

Live Flight TrackerFlight Track Log ✈ CTA400 ✈ 05-Jun-2013 ✈ KADS - KLBB

Flight Track Log - Related Links

Times and Time Zones

All times are in EDT time to prevent confusion due to time zone crossing. See the CTA400 flight status page for this flight to view local times or setup timezone preferences in your user account.

Time Position Orientation Groundspeed Altitude Reporting Facility
EDT Latitude Longitude Course Direction KTS MPH feet Rate Location/Type
08:13AM 32.9667 -96.8333 157° South 105 121 1,100  Level Dallas / Fort Worth TRACON
08:14AM 32.9333 -96.8167 157° South 114 131 2,800 1,320 Climbing Dallas / Fort Worth TRACON
08:15AM 32.9167 -96.8500 239° Southwest 151 174 4,000 600 Climbing Dallas / Fort Worth TRACON
08:16AM 32.9167 -96.9000 270° West 184 212 4,100  Climbing Dallas / Fort Worth TRACON
08:17AM 32.9167 -96.9667 270° West 194 223 4,100  Level Dallas / Fort Worth TRACON
08:18AM 32.9000 -97.0333 253° West 193 222 4,100  Level Dallas / Fort Worth TRACON
08:19AM 32.9000 -97.0833 270° West 190 219 4,100  Level Dallas / Fort Worth TRACON
08:20AM 32.9167 -97.1500 287° West 203 234 4,100 420 Level Dallas / Fort Worth TRACON
08:21AM 32.9333 -97.2167 287° West 174 200 5,000 900 Climbing Dallas / Fort Worth TRACON
08:22AM 32.9500 -97.2667 292° West 151 174 6,000 720 Climbing Dallas / Fort Worth TRACON
08:23AM 32.9500 -97.3167 270° West 169 194 6,500 720 Climbing Dallas / Fort Worth TRACON
08:24AM 32.9522 -97.3467 275° West 151 174 7,200 840 Climbing Fort Worth Center
08:25AM 32.9608 -97.3861 285° West 144 166 7,900 600 Climbing Fort Worth Center
08:26AM 32.9692 -97.4381 281° West 144 166 8,500 360 Climbing Fort Worth Center
08:27AM 32.9753 -97.4853 279° West 158 182 8,700 60 Climbing Fort Worth Center
08:28AM 32.9794 -97.5497 274° West 173 199 8,700 -60 Level Fort Worth Center
08:29AM 32.9856 -97.6042 278° West 179 206 8,600 -60 Descending Fort Worth Center
08:30AM 32.9917 -97.6636 277° West 184 212 8,600  Level Fort Worth Center
08:31AM 33.0000 -97.7306 278° West 184 212 8,600  Level Fort Worth Center
08:32AM 33.0122 -97.7825 286° West 179 206 8,600  Level Fort Worth Center
08:33AM 33.0350 -97.8447 294° West 184 212 8,700  Climbing Fort Worth Center
08:34AM 33.0475 -97.8942 287° West 189 217 8,700  Level Fort Worth Center
08:35AM 33.0575 -97.9586 281° West 183 211 8,700 -60 Level Fort Worth Center
08:36AM 33.0742 -98.0133 290° West 183 211 8,600 -60 Descending Fort Worth Center
08:37AM 33.0883 -98.0778 285° West 183 211 8,600  Level Fort Worth Center
08:38AM 33.0986 -98.1275 284° West 183 211 8,600  Level Fort Worth Center
08:39AM 33.1147 -98.1947 286° West 183 211 8,700  Climbing Fort Worth Center
08:40AM 33.1250 -98.2469 283° West 183 211 8,600 -60 Descending Fort Worth Center
08:41AM 33.1369 -98.3089 283° West 183 211 8,600  Level Fort Worth Center
08:42AM 33.1450 -98.3636 280° West 183 211 8,600  Level Fort Worth Center
08:43AM 33.1569 -98.4258 283° West 183 211 8,600  Level Fort Worth Center
08:44AM 33.1692 -98.4781 286° West 183 211 8,700  Climbing Fort Worth Center
08:45AM 33.1831 -98.5378 286° West 183 211 8,700  Level Fort Worth Center
08:46AM 33.2036 -98.5953 293° West 183 211 8,700 -60 Level Fort Worth Center
08:47AM 33.2133 -98.6525 281° West 183 211 8,600 -60 Descending Fort Worth Center
08:48AM 33.2233 -98.7097 282° West 183 211 8,600  Level Fort Worth Center
08:49AM 33.2394 -98.7669 289° West 183 211 8,600  Level Fort Worth Center
08:50AM 33.2553 -98.8244 288° West 183 211 8,700  Climbing Fort Worth Center
08:51AM 33.2672 -98.8817 284° West 183 211 8,700 -60 Level Fort Worth Center
08:52AM 33.2894 -98.9442 293° West 183 211 8,600  Descending Fort Worth Center
08:53AM 33.2992 -99.0017 281° West 183 211 8,700  Climbing Fort Worth Center
08:54AM 33.3131 -99.0517 288° West 183 211 8,700 -60 Level Fort Worth Center
08:55AM 33.3186 -99.1114 276° West 177 204 8,600 -120 Descending Fort Worth Center
08:56AM 33.3344 -99.1664 289° West 183 211 8,500  Descending Fort Worth Center
08:57AM 33.3422 -99.2211 280° West 183 211 8,600 60 Climbing Fort Worth Center
08:58AM 33.3517 -99.2786 281° West 176 203 8,700  Climbing Fort Worth Center
08:59AM 33.3633 -99.3311 285° West 181 208 8,700 -60 Level Fort Worth Center
09:00AM 33.3750 -99.3886 284° West 181 208 8,600 -180 Descending Fort Worth Center
09:01AM 33.3847 -99.4461 281° West 181 208 8,400 -60 Descending Fort Worth Center
09:02AM 33.3961 -99.5008 284° West 181 208 8,500 60 Climbing Fort Worth Center
09:03AM 33.4078 -99.5558 284° West 181 208 8,600  Climbing Fort Worth Center
09:04AM 33.4172 -99.6108 282° West 181 208 8,600 -60 Level Fort Worth Center
09:05AM 33.4289 -99.6686 284° West 181 208 8,500 -60 Descending Fort Worth Center
09:06AM 33.4383 -99.7236 282° West 181 208 8,500 -60 Level Fort Worth Center
09:07AM 33.4517 -99.7786 286° West 181 208 8,400 -60 Descending Fort Worth Center
09:08AM 33.4611 -99.8336 282° West 181 208 8,400 60 Level Fort Worth Center
09:09AM 33.4706 -99.8861 282° West 181 208 8,600 120 Climbing Fort Worth Center
09:10AM 33.4800 -99.9411 282° West 176 203 8,700  Climbing Fort Worth Center
09:11AM 33.4892 -99.9989 281° West 176 203 8,600 -120 Descending Fort Worth Center
09:12AM 33.5006 -100.0539 284° West 171 197 8,500 -180 Descending Fort Worth Center
09:13AM 33.5139 -100.1092 286° West 171 197 8,300 -60 Descending Fort Worth Center
09:14AM 33.5275 -100.1619 287° West 171 197 8,400 120 Climbing Fort Worth Center
09:15AM 33.5325 -100.2144 277° West 165 190 8,600 60 Climbing Fort Worth Center
09:16AM 33.5397 -100.2694 279° West 165 190 8,600  Level Fort Worth Center
09:17AM 33.5444 -100.3294 275° West 165 190 8,600 60 Level Fort Worth Center
09:18AM 33.5475 -100.3844 274° West 171 197 8,800 -60 Climbing Fort Worth Center
09:19AM 33.5503 -100.4417 273° West 177 204 8,500 -240 Descending Fort Worth Center
09:20AM 33.5575 -100.4894 280° West 169 194 8,400 -540 Descending Fort Worth Center
09:21AM 33.5603 -100.5367 274° West 156 180 7,500 -300 Descending Fort Worth Center
09:22AM 33.5694 -100.5944 281° West 161 185 7,900 360 Climbing Fort Worth Center
09:23AM 33.5700 -100.6494 271° West 161 185 8,300 240 Climbing Fort Worth Center
09:24AM 33.5767 -100.7144 277° West 169 194 8,500 120 Climbing Fort Worth Center
09:24AM 33.5742 -100.7342 261° West 174 200 8,500 60 Level Fort Worth Center
09:24AM 33.5775 -100.7667 277° West 174 200 8,600  Climbing Fort Worth Center
09:26AM 33.5800 -100.8267 273° West 179 206 8,500 -60 Descending Fort Worth Center
09:27AM 33.5911 -100.8819 284° West 176 203 8,500 -60 Level Fort Worth Center
09:28AM 33.5936 -100.9394 273° West 165 190 8,400  Descending Fort Worth Center
09:29AM 33.6106 -100.9975 289° West 176 203 8,500 -120 Climbing Fort Worth Center
09:29AM 33.6197 -101.0453 283° West 174 200 8,200 -480 Descending Fort Worth Center
09:30AM 33.6328 -101.1031 285° West 176 203 7,600 -600 Descending Fort Worth Center
09:31AM 33.6350 -101.1606 273° West 176 203 7,100 -540 Descending Fort Worth Center
09:32AM 33.6333 -101.2203 268° West 181 208 6,600 -480 Descending Fort Worth Center
09:33AM 33.6314 -101.2828 268° West 184 212 6,200 -480 Descending Fort Worth Center
09:34AM 33.6336 -101.3453 272° West 187 215 5,700 -360 Descending Fort Worth Center
09:36AM 33.6294 -101.4097 266° West 194 223 5,500 -240 Descending Fort Worth Center
09:36AM 33.6275 -101.4697 268° West 199 229 5,300 -120 Descending Fort Worth Center
09:37AM 33.6317 -101.5347 274° West 193 222 5,300  Level Fort Worth Center
09:38AM 33.6317 -101.5994 270° West 189 217 5,300  Level Fort Worth Center
09:39AM 33.6317 -101.6594 270° West 189 217 5,300  Level Fort Worth Center
09:40AM 33.6336 -101.7242 272° West 190 219 5,300 -240 Level Fort Worth Center
09:42AM 33.6372 -101.8019 273° West 195 224 4,800 -420 Descending Fort Worth Center
09:43AM 33.6311 -101.8564 262° West 166 191 4,500 -480 Descending Fort Worth Center
09:44AM 33.6581 -101.8628 349° North 103 119 3,900 -600 Descending Fort Worth Center
09:46AM 33.6637 -101.8206 81° East  Level Estimated
09:53AM 33.6637 -101.8206 132° Southeast  Level Estimated
09:54AM 33.6637 -101.8206 132° Southeast  Level Estimated